Time;durP1;ratioP1;P1;durP2;ratioP2;P2;SDS_P1;SDS_P2;PMS_P1;PMS_P2;Temp;Humidity;BMP_temperature;BMP_pressure;BME280_temperature;BME280_humidity;BME280_pressure;Samples;Min_cycle;Max_cycle;Signal;HPM_P1;HPM_P2
2021/08/22 00:01:25;;;;;;;0.47;0.10;;;17.10;99.90;;;;;;5150978;28;20094;-88
2021/08/22 00:03:52;;;;;;;0.20;0.20;;;17.10;99.90;;;;;;5134094;28;20035;-87
2021/08/22 00:06:20;;;;;;;0.30;0.30;;;17.10;99.90;;;;;;5133669;28;20031;-89
2021/08/22 00:08:46;;;;;;;0.10;0.10;;;17.10;99.90;;;;;;5134353;28;20027;-88
2021/08/22 00:11:14;;;;;;;0.75;0.20;;;17.10;99.90;;;;;;5100275;28;20040;-87
2021/08/22 00:13:41;;;;;;;0.25;0.22;;;17.10;99.90;;;;;;5133533;28;20529;-87
2021/08/22 00:16:07;;;;;;;1.75;0.47;;;17.10;99.90;;;;;;5150826;28;20034;-86
2021/08/22 00:18:35;;;;;;;0.15;0.15;;;17.10;99.90;;;;;;5133703;28;20039;-88
2021/08/22 00:21:02;;;;;;;0.10;0.10;;;17.20;99.90;;;;;;5117060;28;20044;-88
2021/08/22 00:23:29;;;;;;;0.20;0.20;;;17.20;99.90;;;;;;5133806;28;20518;-88
2021/08/22 00:25:56;;;;;;;0.22;0.15;;;17.20;99.90;;;;;;5117000;28;20035;-88
2021/08/22 00:28:23;;;;;;;0.10;0.10;;;17.30;99.90;;;;;;5133388;28;20088;-88
2021/08/22 00:30:50;;;;;;;2.83;0.20;;;17.30;99.90;;;;;;5116900;28;20051;-88
2021/08/22 00:33:17;;;;;;;0.20;0.10;;;17.30;99.90;;;;;;5133303;28;20043;-88
2021/08/22 00:35:44;;;;;;;0.57;0.50;;;17.20;99.90;;;;;;5132991;28;20092;-88
2021/08/22 00:38:11;;;;;;;0.05;0.05;;;17.30;99.90;;;;;;5116802;28;20047;-88
2021/08/22 00:40:37;;;;;;;0.15;0.10;;;17.30;99.90;;;;;;5116421;28;20044;-88
2021/08/22 00:43:08;;;;;;;0.32;0.10;;;17.30;99.90;;;;;;5116802;28;20043;-87
2021/08/22 00:45:37;;;;;;;0.00;0.00;;;17.30;99.90;;;;;;5133036;28;20047;-88
2021/08/22 00:48:05;;;;;;;0.00;0.00;;;17.30;99.90;;;;;;5133592;28;20036;-87
2021/08/22 00:50:33;;;;;;;0.65;0.30;;;17.30;99.90;;;;;;5133269;28;20483;-88
2021/08/22 00:53:04;;;;;;;0.10;0.10;;;17.30;99.90;;;;;;5150110;28;20035;-88
2021/08/22 00:55:31;;;;;;;0.22;0.22;;;17.30;99.90;;;;;;5132730;28;20047;-87
2021/08/22 00:57:58;;;;;;;0.13;0.13;;;17.30;99.90;;;;;;5133159;28;20467;-88
2021/08/22 01:00:26;;;;;;;0.13;0.10;;;17.40;99.90;;;;;;5132583;28;20039;-88
2021/08/22 01:03:18;;;;;;;0.25;0.25;;;17.40;99.90;;;;;;5149878;28;20540;-87
2021/08/22 01:06:07;;;;;;;0.40;0.40;;;17.40;99.90;;;;;;5149739;28;20100;-88
2021/08/22 01:08:40;;;;;;;0.13;0.13;;;17.40;99.90;;;;;;5132661;28;20469;-87
2021/08/22 01:11:19;;;;;;;0.20;0.20;;;17.50;99.90;;;;;;5149777;28;20035;-87
2021/08/22 01:14:11;;;;;;;0.17;0.10;;;17.40;99.90;;;;;;5149321;28;20051;-88
2021/08/22 01:16:57;;;;;;;0.28;0.13;;;17.50;99.90;;;;;;5132694;28;20039;-88
2021/08/22 01:19:27;;;;;;;0.20;0.20;;;17.50;99.90;;;;;;5132674;28;20465;-87
2021/08/22 01:21:58;;;;;;;0.00;0.00;;;17.50;99.90;;;;;;5132714;28;20059;-88
2021/08/22 01:24:26;;;;;;;0.43;0.30;;;17.50;99.90;;;;;;5149649;28;20402;-88
2021/08/22 01:26:54;;;;;;;1.45;0.30;;;17.40;99.90;;;;;;5132705;28;20043;-88
2021/08/22 01:29:27;;;;;;;0.32;0.28;;;17.40;99.90;;;;;;5132628;28;20047;-88
2021/08/22 01:31:55;;;;;;;0.52;0.30;;;17.50;99.90;;;;;;5132426;28;20044;-88
2021/08/22 01:34:23;;;;;;;0.05;0.05;;;17.50;99.90;;;;;;5149480;28;20032;-88
2021/08/22 01:36:50;;;;;;;0.30;0.22;;;17.50;99.90;;;;;;5132112;28;20040;-88
2021/08/22 01:39:19;;;;;;;0.00;0.00;;;17.40;99.90;;;;;;5149153;28;20032;-88
2021/08/22 01:41:48;;;;;;;0.30;0.20;;;17.40;99.90;;;;;;5132213;28;20073;-88
2021/08/22 01:44:17;;;;;;;0.15;0.13;;;17.40;99.90;;;;;;5132270;28;20056;-88
2021/08/22 01:46:45;;;;;;;0.13;0.13;;;17.40;99.90;;;;;;5132470;28;20031;-87
2021/08/22 01:49:13;;;;;;;0.20;0.20;;;17.30;99.90;;;;;;5132313;28;20043;-88
2021/08/22 01:51:41;;;;;;;0.13;0.13;;;17.40;99.90;;;;;;5098661;28;20052;-88
2021/08/22 01:54:10;;;;;;;0.32;0.30;;;17.30;99.90;;;;;;5132018;28;20036;-87
2021/08/22 01:56:39;;;;;;;0.20;0.20;;;17.30;99.90;;;;;;5131602;28;20039;-88
2021/08/22 01:59:06;;;;;;;0.32;0.32;;;17.30;99.90;;;;;;5148780;28;20031;-88
2021/08/22 02:01:35;;;;;;;0.20;0.20;;;17.30;99.90;;;;;;5131660;28;20043;-88
2021/08/22 02:04:16;;;;;;;0.35;0.30;;;17.30;99.90;;;;;;5148745;28;20395;-88
2021/08/22 02:06:58;;;;;;;0.10;0.10;;;17.30;99.90;;;;;;5148486;28;20475;-88
2021/08/22 02:09:47;;;;;;;0.20;0.20;;;17.30;99.90;;;;;;5132339;28;20536;-88
2021/08/22 02:12:17;;;;;;;0.20;0.20;;;17.30;99.90;;;;;;5148483;28;20120;-88
2021/08/22 02:15:01;;;;;;;0.00;0.00;;;17.30;99.90;;;;;;5131478;28;20097;-89
2021/08/22 02:17:40;;;;;;;0.38;0.32;;;17.40;99.90;;;;;;5148533;28;20051;-88
2021/08/22 02:20:07;;;;;;;0.55;0.40;;;17.40;99.90;;;;;;5148563;28;20158;-88
2021/08/22 02:22:35;;;;;;;0.10;0.10;;;17.40;99.90;;;;;;5131247;28;20063;-87
2021/08/22 02:25:03;;;;;;;0.10;0.10;;;17.40;99.90;;;;;;5131599;28;20395;-88
2021/08/22 02:27:30;;;;;;;0.10;0.10;;;17.30;99.90;;;;;;5114959;28;20040;-88
2021/08/22 02:29:57;;;;;;;0.10;0.10;;;17.40;99.90;;;;;;5148347;28;20058;-88
2021/08/22 02:32:24;;;;;;;0.40;0.20;;;17.30;99.90;;;;;;5131372;28;20067;-87
2021/08/22 02:34:51;;;;;;;0.17;0.17;;;17.30;99.90;;;;;;5114666;28;20113;-88
2021/08/22 02:37:18;;;;;;;0.00;0.00;;;17.30;99.90;;;;;;5098212;28;20475;-88
2021/08/22 02:39:47;;;;;;;0.28;0.20;;;17.30;99.90;;;;;;5131003;28;20044;-88
2021/08/22 02:42:15;;;;;;;0.35;0.20;;;17.30;99.90;;;;;;5115075;28;20039;-88
2021/08/22 02:44:44;;;;;;;0.20;0.20;;;17.30;99.90;;;;;;5131273;28;20055;-87
2021/08/22 02:47:11;;;;;;;0.00;0.00;;;17.40;99.90;;;;;;5115020;28;20514;-88
2021/08/22 02:49:38;;;;;;;0.38;0.30;;;17.40;99.90;;;;;;5148167;28;20065;-87
2021/08/22 02:52:05;;;;;;;0.10;0.10;;;17.40;99.90;;;;;;5131060;28;20039;-87
2021/08/22 02:54:32;;;;;;;0.00;0.00;;;17.40;99.90;;;;;;5098422;28;20035;-87
2021/08/22 02:57:00;;;;;;;0.38;0.30;;;17.40;99.90;;;;;;5114691;28;20055;-88
2021/08/22 02:59:27;;;;;;;0.38;0.38;;;17.40;99.90;;;;;;5114436;28;20040;-87
2021/08/22 03:01:54;;;;;;;0.20;0.10;;;17.40;99.90;;;;;;5131059;28;20047;-87
2021/08/22 03:04:21;;;;;;;0.43;0.28;;;17.40;99.90;;;;;;5131448;28;20043;-87
2021/08/22 03:06:48;;;;;;;1.88;0.20;;;17.40;99.90;;;;;;5131202;28;20537;-88
2021/08/22 03:09:15;;;;;;;0.00;0.00;;;17.40;99.90;;;;;;5097790;28;20051;-88
2021/08/22 03:11:42;;;;;;;0.13;0.10;;;17.40;99.90;;;;;;5118200;28;20055;-88
2021/08/22 03:14:09;;;;;;;0.75;0.32;;;17.40;99.90;;;;;;5118464;28;20054;-88
2021/08/22 03:16:35;;;;;;;0.15;0.15;;;17.40;99.90;;;;;;5135229;28;20467;-88
2021/08/22 03:19:02;;;;;;;0.20;0.20;;;17.40;99.90;;;;;;5134512;28;20036;-88
2021/08/22 03:21:30;;;;;;;0.45;0.30;;;17.40;99.90;;;;;;5117981;28;20043;-88
2021/08/22 03:23:57;;;;;;;0.57;0.40;;;17.40;99.90;;;;;;5117803;28;20034;-88
2021/08/22 03:26:24;;;;;;;0.00;0.00;;;17.40;99.90;;;;;;5101507;28;20040;-88
2021/08/22 03:28:51;;;;;;;0.32;0.25;;;17.40;99.90;;;;;;5117757;28;20061;-89
2021/08/22 03:31:18;;;;;;;0.30;0.30;;;17.40;99.90;;;;;;5134646;28;20054;-88
2021/08/22 03:33:45;;;;;;;0.43;0.30;;;17.30;99.90;;;;;;5101078;28;20040;-88
2021/08/22 03:36:12;;;;;;;0.43;0.30;;;17.30;99.90;;;;;;5151519;28;20032;-88
2021/08/22 03:38:39;;;;;;;0.03;0.03;;;17.30;99.90;;;;;;5117889;28;20039;-88
2021/08/22 03:41:06;;;;;;;0.93;0.60;;;17.30;99.90;;;;;;5134250;28;20038;-88
2021/08/22 03:43:32;;;;;;;0.00;0.00;;;17.30;99.90;;;;;;5118181;28;20139;-88
2021/08/22 03:45:59;;;;;;;0.52;0.20;;;17.20;99.90;;;;;;5117417;28;20138;-88
2021/08/22 03:48:26;;;;;;;0.30;0.30;;;17.30;99.90;;;;;;5117803;28;20057;-88
2021/08/22 03:50:53;;;;;;;0.35;0.20;;;17.20;99.90;;;;;;5117218;28;20038;-88
2021/08/22 03:53:19;;;;;;;0.10;0.10;;;17.30;99.90;;;;;;5134160;28;20114;-89
2021/08/22 03:55:46;;;;;;;0.35;0.32;;;17.20;99.90;;;;;;5133986;28;20042;-89
2021/08/22 03:58:13;;;;;;;0.32;0.32;;;17.20;99.90;;;;;;5134774;28;20035;-89
2021/08/22 04:00:40;;;;;;;0.13;0.10;;;17.20;99.90;;;;;;5134284;28;20084;-88
2021/08/22 04:03:07;;;;;;;0.68;0.40;;;17.20;99.90;;;;;;5133908;28;20070;-89
2021/08/22 04:05:34;;;;;;;0.08;0.08;;;17.20;99.90;;;;;;5117424;28;20487;-89
2021/08/22 04:08:01;;;;;;;0.00;0.00;;;17.20;99.90;;;;;;5133860;28;20060;-90
2021/08/22 04:10:28;;;;;;;0.52;0.10;;;17.20;99.90;;;;;;5133854;28;20032;-89
2021/08/22 04:12:56;;;;;;;0.20;0.20;;;17.10;99.90;;;;;;5100344;28;20403;-90
2021/08/22 04:15:23;;;;;;;0.00;0.00;;;17.10;99.90;;;;;;5150687;28;20463;-91
2021/08/22 04:17:51;;;;;;;0.32;0.10;;;17.10;99.90;;;;;;5133856;28;20044;-91
2021/08/22 04:20:18;;;;;;;0.32;0.20;;;17.10;99.90;;;;;;5133917;28;20082;-91
2021/08/22 04:22:44;;;;;;;0.47;0.28;;;17.10;99.90;;;;;;5151294;28;20040;-91
2021/08/22 04:25:12;;;;;;;0.03;0.03;;;17.10;99.90;;;;;;5133697;28;20035;-90
2021/08/22 04:27:40;;;;;;;0.98;0.30;;;17.10;99.90;;;;;;5150743;28;20028;-90
2021/08/22 04:30:12;;;;;;;0.05;0.05;;;17.10;99.90;;;;;;5133821;28;20044;-90
2021/08/22 04:32:39;;;;;;;0.50;0.30;;;17.10;99.90;;;;;;5133797;28;20044;-89
2021/08/22 04:35:07;;;;;;;0.10;0.10;;;17.10;99.90;;;;;;5133571;28;20512;-89
2021/08/22 04:37:34;;;;;;;0.00;0.00;;;17.10;99.90;;;;;;5116421;28;20050;-89
2021/08/22 04:40:01;;;;;;;0.00;0.00;;;17.00;99.90;;;;;;5116214;28;20044;-90
2021/08/22 04:42:27;;;;;;;0.00;0.00;;;17.00;99.90;;;;;;5149622;28;20067;-90
2021/08/22 04:44:54;;;;;;;0.20;0.15;;;17.00;99.90;;;;;;5149430;28;20548;-90
2021/08/22 04:47:24;;;;;;;0.10;0.10;;;17.00;99.90;;;;;;5132621;28;20061;-91
2021/08/22 04:49:51;;;;;;;0.20;0.20;;;17.00;99.90;;;;;;5149735;28;20031;-91
2021/08/22 04:52:18;;;;;;;0.20;0.20;;;17.00;99.90;;;;;;5132751;28;20042;-90
2021/08/22 04:54:45;;;;;;;0.60;0.50;;;17.00;99.90;;;;;;5099011;28;20130;-90
2021/08/22 04:57:12;;;;;;;0.35;0.32;;;16.90;99.90;;;;;;5131890;28;20134;-90
2021/08/22 04:59:39;;;;;;;0.55;0.45;;;16.90;99.90;;;;;;5099149;28;20135;-89
2021/08/22 05:02:06;;;;;;;0.40;0.20;;;16.90;99.90;;;;;;5115358;28;20124;-90
2021/08/22 05:04:33;;;;;;;0.10;0.10;;;16.90;99.90;;;;;;5115522;28;20046;-91
2021/08/22 05:07:00;;;;;;;0.00;0.00;;;16.90;99.90;;;;;;5132303;28;20114;-90
2021/08/22 05:09:27;;;;;;;0.60;0.30;;;16.80;99.90;;;;;;5132382;28;20442;-89
2021/08/22 05:11:54;;;;;;;0.03;0.03;;;16.80;99.90;;;;;;5132052;28;20051;-89
2021/08/22 05:14:22;;;;;;;0.47;0.35;;;16.80;99.90;;;;;;5098993;28;20051;-90
2021/08/22 05:16:49;;;;;;;1.35;0.50;;;16.80;99.90;;;;;;5115452;28;20044;-90
2021/08/22 05:19:16;;;;;;;0.55;0.52;;;16.80;99.90;;;;;;5148883;28;20039;-90
2021/08/22 05:21:42;;;;;;;0.28;0.25;;;16.80;99.90;;;;;;5099538;28;20433;-90
2021/08/22 05:24:09;;;;;;;0.32;0.30;;;16.80;99.90;;;;;;5115610;28;20032;-90
2021/08/22 05:26:36;;;;;;;0.45;0.32;;;16.70;99.90;;;;;;5099734;28;20047;-90
2021/08/22 05:29:03;;;;;;;0.13;0.13;;;16.70;99.90;;;;;;5099260;28;20039;-90
2021/08/22 05:31:30;;;;;;;0.00;0.00;;;16.70;99.90;;;;;;5115874;28;20047;-90
2021/08/22 05:33:56;;;;;;;0.10;0.10;;;16.70;99.90;;;;;;5149072;28;20035;-90
2021/08/22 05:36:23;;;;;;;0.57;0.50;;;16.70;99.90;;;;;;5099093;28;20044;-90
2021/08/22 05:38:52;;;;;;;0.50;0.40;;;16.70;99.90;;;;;;5099079;28;20169;-90
2021/08/22 05:41:20;;;;;;;0.05;0.05;;;16.60;99.90;;;;;;5115729;28;20054;-91
2021/08/22 05:43:46;;;;;;;0.45;0.45;;;16.60;99.90;;;;;;5132758;28;20126;-90
2021/08/22 05:46:13;;;;;;;0.40;0.30;;;16.60;99.90;;;;;;5115406;28;20062;-90
2021/08/22 05:48:40;;;;;;;0.10;0.10;;;16.60;99.90;;;;;;5116377;28;20082;-90
2021/08/22 05:51:17;;;;;;;0.00;0.00;;;16.60;99.90;;;;;;5115574;28;20067;-90
2021/08/22 05:53:44;;;;;;;0.57;0.45;;;16.60;99.90;;;;;;5149927;28;20373;-89
2021/08/22 05:56:11;;;;;;;0.43;0.10;;;16.60;99.90;;;;;;5115502;28;20043;-90
2021/08/22 05:58:38;;;;;;;0.40;0.20;;;16.60;99.90;;;;;;5115895;28;20031;-91
2021/08/22 06:01:05;;;;;;;0.80;0.40;;;16.70;99.90;;;;;;5132419;28;20058;-90
2021/08/22 06:03:32;;;;;;;0.10;0.10;;;16.70;99.90;;;;;;5115685;28;20051;-90
2021/08/22 06:06:06;;;;;;;0.10;0.05;;;16.70;99.90;;;;;;5149405;28;20055;-91
2021/08/22 06:08:34;;;;;;;0.00;0.00;;;16.70;99.90;;;;;;5132338;28;20138;-91
2021/08/22 06:11:01;;;;;;;0.20;0.20;;;16.70;99.90;;;;;;5132269;28;20056;-90
2021/08/22 06:13:29;;;;;;;0.13;0.10;;;16.70;99.90;;;;;;5132823;28;20039;-90
2021/08/22 06:15:56;;;;;;;0.17;0.10;;;16.70;99.90;;;;;;5132082;28;20097;-90
2021/08/22 06:18:23;;;;;;;0.00;0.00;;;16.70;99.90;;;;;;5115285;28;20266;-91
2021/08/22 06:20:50;;;;;;;0.20;0.20;;;16.70;99.90;;;;;;5133577;28;20130;-91
2021/08/22 06:23:17;;;;;;;0.20;0.20;;;16.70;99.90;;;;;;5114908;28;20052;-90
2021/08/22 06:25:43;;;;;;;0.10;0.10;;;16.70;99.90;;;;;;5132143;28;20054;-90
2021/08/22 06:28:13;;;;;;;0.10;0.10;;;16.70;99.90;;;;;;5132364;28;20048;-91
2021/08/22 06:30:40;;;;;;;0.08;0.08;;;16.70;99.90;;;;;;5132468;28;20051;-91
2021/08/22 06:33:07;;;;;;;0.00;0.00;;;16.70;99.90;;;;;;5131476;28;20052;-91
2021/08/22 06:35:33;;;;;;;0.00;0.00;;;16.80;99.90;;;;;;5148781;28;20039;-91
2021/08/22 06:38:00;;;;;;;0.00;0.00;;;16.80;99.90;;;;;;5115752;28;20043;-91
2021/08/22 06:40:27;;;;;;;0.00;0.00;;;16.80;99.90;;;;;;5131826;28;20036;-91
2021/08/22 06:42:54;;;;;;;0.00;0.00;;;16.80;99.90;;;;;;5132795;28;20050;-90
2021/08/22 06:45:22;;;;;;;0.20;0.17;;;16.80;99.90;;;;;;5152648;28;20027;-91
2021/08/22 06:47:53;;;;;;;0.10;0.10;;;16.80;99.90;;;;;;5136126;28;20055;-90
2021/08/22 06:50:23;;;;;;;0.47;0.20;;;16.80;99.90;;;;;;5136170;28;20492;-91
2021/08/22 06:52:51;;;;;;;0.00;0.00;;;16.80;99.90;;;;;;5153059;28;20059;-92
2021/08/22 06:55:18;;;;;;;0.10;0.10;;;16.80;99.90;;;;;;5135983;28;20047;-93
2021/08/22 06:57:45;;;;;;;0.00;0.00;;;16.80;99.90;;;;;;5136471;28;20372;-92
2021/08/22 07:00:13;;;;;;;0.52;0.25;;;16.80;99.90;;;;;;5135823;28;20042;-91
2021/08/22 07:02:42;;;;;;;0.25;0.10;;;16.80;99.90;;;;;;5136333;28;20100;-92
2021/08/22 07:05:10;;;;;;;0.10;0.10;;;16.80;99.90;;;;;;5135926;28;20043;-92
2021/08/22 07:07:37;;;;;;;0.45;0.45;;;16.80;99.90;;;;;;5119038;28;20150;-91
2021/08/22 07:10:05;;;;;;;0.00;0.00;;;16.80;99.90;;;;;;5118528;28;20048;-91
2021/08/22 07:12:32;;;;;;;0.00;0.00;;;16.80;99.90;;;;;;5135184;28;20078;-92
2021/08/22 07:14:58;;;;;;;0.28;0.20;;;16.80;99.90;;;;;;5119189;28;20040;-92
2021/08/22 07:17:25;;;;;;;0.00;0.00;;;16.80;99.90;;;;;;5101761;28;20402;-91
2021/08/22 07:19:52;;;;;;;0.28;0.28;;;16.80;99.90;;;;;;5135923;28;20137;-91
2021/08/22 07:22:19;;;;;;;0.20;0.20;;;16.80;99.90;;;;;;5118502;28;20051;-91
2021/08/22 07:24:46;;;;;;;0.10;0.10;;;16.80;99.90;;;;;;5102052;28;20067;-92
2021/08/22 07:27:13;;;;;;;0.38;0.38;;;16.80;99.90;;;;;;5151949;28;20502;-91
2021/08/22 07:29:40;;;;;;;0.00;0.00;;;16.80;99.90;;;;;;5135309;28;20168;-92
2021/08/22 07:32:07;;;;;;;0.10;0.10;;;16.80;99.90;;;;;;5118215;28;20134;-92
2021/08/22 07:34:34;;;;;;;0.15;0.10;;;16.80;99.90;;;;;;5134871;28;20040;-93
2021/08/22 07:37:01;;;;;;;0.20;0.15;;;16.90;99.90;;;;;;5134999;28;20065;-92
2021/08/22 07:39:28;;;;;;;0.00;0.00;;;16.90;99.90;;;;;;5135132;28;20043;-92
2021/08/22 07:42:08;;;;;;;0.10;0.10;;;16.90;99.90;;;;;;5136945;28;20043;-92
2021/08/22 07:44:35;;;;;;;0.00;0.00;;;16.90;99.90;;;;;;5134663;28;20547;-92
2021/08/22 07:47:02;;;;;;;0.00;0.00;;;17.00;99.90;;;;;;5135428;28;20043;-92
2021/08/22 07:49:29;;;;;;;0.10;0.10;;;16.90;99.90;;;;;;5134526;28;20047;-92
2021/08/22 07:51:56;;;;;;;0.00;0.00;;;17.00;99.90;;;;;;5135320;28;20154;-92
2021/08/22 07:54:23;;;;;;;0.05;0.05;;;17.00;99.90;;;;;;5134494;28;20117;-92
2021/08/22 07:56:50;;;;;;;0.10;0.10;;;17.00;99.90;;;;;;5134506;28;20047;-91
2021/08/22 07:59:17;;;;;;;0.73;0.20;;;17.00;99.90;;;;;;5118161;28;20047;-90
2021/08/22 08:01:44;;;;;;;0.00;0.00;;;17.00;99.90;;;;;;5135605;28;20047;-92
2021/08/22 08:04:10;;;;;;;0.00;0.00;;;17.00;99.90;;;;;;5135028;28;20441;-91
2021/08/22 08:06:37;;;;;;;0.25;0.13;;;17.00;99.90;;;;;;5117569;28;20134;-91
2021/08/22 08:09:05;;;;;;;0.00;0.00;;;17.00;99.90;;;;;;5134405;28;20043;-92
2021/08/22 08:11:32;;;;;;;0.20;0.20;;;17.00;99.90;;;;;;5117140;28;20047;-92
2021/08/22 08:13:59;;;;;;;0.00;0.00;;;17.00;99.90;;;;;;5151402;28;20032;-91
2021/08/22 08:16:26;;;;;;;0.00;0.00;;;17.00;99.90;;;;;;5134141;28;20039;-90
2021/08/22 08:18:53;;;;;;;0.00;0.00;;;17.00;99.90;;;;;;5117340;28;20040;-91
2021/08/22 08:21:23;;;;;;;0.00;0.00;;;17.00;99.90;;;;;;5135093;28;20043;-91
2021/08/22 08:23:49;;;;;;;0.20;0.20;;;17.10;99.90;;;;;;5117356;28;20134;-90
2021/08/22 08:26:18;;;;;;;0.00;0.00;;;17.10;99.90;;;;;;5151167;28;20059;-90
2021/08/22 08:28:45;;;;;;;0.00;0.00;;;17.00;99.90;;;;;;5150951;28;20422;-91
2021/08/22 08:31:13;;;;;;;0.10;0.10;;;17.10;99.90;;;;;;5134129;28;20092;-90
2021/08/22 08:33:40;;;;;;;0.10;0.10;;;17.10;99.90;;;;;;5150833;28;20035;-90
2021/08/22 08:36:07;;;;;;;0.35;0.20;;;17.10;99.90;;;;;;5134067;28;20550;-90
2021/08/22 08:38:36;;;;;;;0.00;0.00;;;17.10;99.90;;;;;;5134032;28;20040;-91
2021/08/22 08:41:03;;;;;;;0.00;0.00;;;17.10;99.90;;;;;;5134174;28;20040;-90
2021/08/22 08:43:39;;;;;;;0.20;0.10;;;17.10;99.90;;;;;;5135047;28;20470;-91
2021/08/22 08:46:32;;;;;;;0.10;0.10;;;17.10;99.90;;;;;;5122459;28;20073;-91
2021/08/22 08:49:17;;;;;;;0.32;0.28;;;17.20;99.90;;;;;;5134081;28;20040;-90
2021/08/22 08:52:05;;;;;;;0.00;0.00;;;17.20;99.90;;;;;;5133116;28;20044;-90
2021/08/22 08:54:36;;;;;;;0.32;0.22;;;17.20;99.90;;;;;;5133382;28;20073;-90
2021/08/22 08:57:04;;;;;;;0.22;0.13;;;17.20;99.90;;;;;;5117211;28;20380;-91
2021/08/22 08:59:37;;;;;;;0.10;0.10;;;17.30;99.90;;;;;;5133059;28;20395;-90
2021/08/22 09:02:05;;;;;;;0.00;0.00;;;17.30;99.90;;;;;;5133623;28;20063;-90
2021/08/22 09:04:35;;;;;;;0.10;0.10;;;17.30;99.90;;;;;;5133115;28;20055;-91
2021/08/22 09:07:35;;;;;;;0.10;0.10;;;17.40;99.90;;;;;;5133523;28;20124;-90
2021/08/22 09:10:46;;;;;;;0.00;0.00;;;17.50;99.90;;;;;;5149855;28;20038;-91
2021/08/22 09:13:34;;;;;;;0.10;0.10;;;17.50;99.90;;;;;;5079329;28;20041;-91
2021/08/22 09:16:38;;;;;;;0.10;0.10;;;17.60;99.90;;;;;;5150346;28;20031;-91
2021/08/22 09:19:33;;;;;;;0.10;0.10;;;17.70;99.90;;;;;;5133504;28;20048;-92
2021/08/22 09:22:15;;;;;;;0.10;0.10;;;17.80;99.90;;;;;;5133705;28;20067;-91
2021/08/22 09:25:01;;;;;;;0.20;0.20;;;18.00;99.90;;;;;;5133038;28;20056;-92
2021/08/22 09:28:26;;;;;;;0.17;0.10;;;18.20;99.90;;;;;;5132983;28;20048;-91
2021/08/22 09:31:31;;;;;;;0.30;0.30;;;18.50;99.90;;;;;;5132931;28;20479;-88
2021/08/22 09:34:57;;;;;;;0.00;0.00;;;18.80;99.90;;;;;;5134188;28;20054;-91
2021/08/22 09:38:03;;;;;;;0.00;0.00;;;19.20;99.90;;;;;;5095352;28;20054;-92
2021/08/22 09:41:09;;;;;;;0.00;0.00;;;19.40;99.90;;;;;;5133403;28;20059;-89
2021/08/22 09:44:13;;;;;;;0.47;0.30;;;19.60;99.90;;;;;;5132383;28;20212;-92
2021/08/22 09:47:05;;;;;;;0.22;0.22;;;19.60;99.90;;;;;;5133428;28;20069;-92
2021/08/22 09:50:09;;;;;;;1.08;0.30;;;19.60;99.90;;;;;;5132895;28;20043;-91
2021/08/22 09:53:14;;;;;;;0.68;0.30;;;19.50;99.90;;;;;;5130956;28;20044;-91
2021/08/22 09:56:14;;;;;;;0.20;0.20;;;19.40;99.90;;;;;;5121443;28;20564;-91
2021/08/22 09:59:00;;;;;;;0.38;0.38;;;19.40;99.90;;;;;;5117601;28;20067;-90
2021/08/22 10:01:44;;;;;;;0.10;0.10;;;19.30;99.90;;;;;;5130095;28;20038;-90
2021/08/22 10:04:37;;;;;;;0.00;0.00;;;19.20;99.90;;;;;;5112443;28;20093;-90
2021/08/22 10:07:04;;;;;;;0.15;0.13;;;19.20;99.90;;;;;;5089994;28;20396;-90
2021/08/22 10:09:45;;;;;;;0.68;0.28;;;19.10;99.90;;;;;;5112277;28;20051;-91
2021/08/22 10:12:13;;;;;;;0.98;0.20;;;19.00;99.90;;;;;;5131161;28;20087;-90
2021/08/22 10:14:40;;;;;;;0.38;0.30;;;19.00;99.90;;;;;;5106093;28;20064;-91
2021/08/22 10:17:08;;;;;;;0.20;0.20;;;19.10;99.90;;;;;;5111539;28;20055;-89
2021/08/22 10:19:35;;;;;;;0.38;0.28;;;19.20;99.90;;;;;;5110425;28;20123;-85
2021/08/22 10:22:12;;;;;;;0.20;0.20;;;19.30;99.90;;;;;;5110985;28;20131;-86
2021/08/22 10:24:38;;;;;;;0.00;0.00;;;19.30;99.90;;;;;;5128612;28;20438;-84
2021/08/22 10:27:09;;;;;;;0.13;0.13;;;19.40;99.90;;;;;;5111512;28;20056;-88
2021/08/22 10:29:48;;;;;;;0.68;0.47;;;19.30;99.90;;;;;;5130001;28;20035;-88
2021/08/22 10:32:15;;;;;;;1.23;0.17;;;19.20;99.90;;;;;;5148455;28;20433;-89
2021/08/22 10:34:43;;;;;;;2.08;0.68;;;19.10;99.90;;;;;;5117465;28;20048;-88
2021/08/22 10:37:30;;;;;;;0.03;0.03;;;19.00;99.90;;;;;;5111227;28;20039;-88
2021/08/22 10:39:58;;;;;;;0.10;0.10;;;18.90;99.90;;;;;;5127738;28;20042;-88
2021/08/22 10:42:26;;;;;;;0.10;0.10;;;19.00;99.90;;;;;;5111183;28;20042;-88
2021/08/22 10:44:54;;;;;;;0.20;0.20;;;18.90;99.90;;;;;;5110447;28;20032;-88
2021/08/22 10:47:20;;;;;;;0.10;0.10;;;19.00;99.90;;;;;;5127956;28;20032;-88
2021/08/22 10:49:53;;;;;;;0.08;0.08;;;19.10;99.90;;;;;;5110608;28;20043;-88
2021/08/22 10:52:23;;;;;;;0.30;0.20;;;19.10;99.90;;;;;;5128549;28;20047;-88
2021/08/22 10:55:06;;;;;;;0.85;0.22;;;19.30;99.90;;;;;;5111296;28;20457;-88
2021/08/22 10:57:45;;;;;;;0.77;0.35;;;19.30;99.90;;;;;;5128101;28;20036;-88
2021/08/22 11:00:35;;;;;;;0.00;0.00;;;19.50;99.90;;;;;;5113279;28;20043;-89
2021/08/22 11:03:17;;;;;;;0.08;0.08;;;19.50;99.90;;;;;;5147767;28;20398;-88
2021/08/22 11:05:45;;;;;;;0.00;0.00;;;19.60;99.90;;;;;;5148297;28;20085;-88
2021/08/22 11:08:13;;;;;;;0.10;0.10;;;19.70;99.90;;;;;;5131656;28;20463;-88
2021/08/22 11:10:54;;;;;;;0.35;0.20;;;19.70;99.90;;;;;;5147826;28;20427;-88
2021/08/22 11:13:22;;;;;;;0.00;0.00;;;19.70;99.90;;;;;;5148272;28;20487;-89
2021/08/22 11:15:48;;;;;;;0.38;0.38;;;19.80;99.90;;;;;;5131401;28;20038;-90
2021/08/22 11:18:16;;;;;;;0.25;0.20;;;20.00;99.90;;;;;;5114831;28;20082;-87
2021/08/22 11:20:43;;;;;;;0.55;0.30;;;20.10;99.90;;;;;;5128068;28;20365;-87
2021/08/22 11:23:16;;;;;;;0.20;0.20;;;20.20;99.90;;;;;;5129580;28;20039;-86
2021/08/22 11:25:51;;;;;;;0.45;0.38;;;20.30;99.90;;;;;;5122549;28;20036;-87
2021/08/22 11:28:18;;;;;;;0.03;0.03;;;20.40;99.90;;;;;;5147830;28;20421;-85
2021/08/22 11:30:46;;;;;;;0.25;0.25;;;20.50;99.90;;;;;;5131222;28;20039;-86
2021/08/22 11:33:14;;;;;;;0.28;0.25;;;20.50;99.90;;;;;;5115281;28;20051;-87
2021/08/22 11:35:43;;;;;;;0.15;0.10;;;20.50;99.90;;;;;;5136514;28;20040;-88
2021/08/22 11:38:12;;;;;;;0.30;0.28;;;20.60;99.90;;;;;;5123968;28;20044;-87
2021/08/22 11:40:39;;;;;;;0.00;0.00;;;20.60;99.90;;;;;;5151829;28;20032;-89
2021/08/22 11:43:08;;;;;;;0.10;0.10;;;20.60;99.90;;;;;;5134217;28;20042;-88
2021/08/22 11:45:38;;;;;;;0.25;0.25;;;20.50;99.90;;;;;;5145978;28;20028;-85
2021/08/22 11:48:06;;;;;;;0.30;0.30;;;20.40;99.90;;;;;;5133963;28;20059;-87
2021/08/22 11:50:36;;;;;;;0.10;0.10;;;20.30;99.90;;;;;;5151267;28;20038;-88
2021/08/22 11:53:06;;;;;;;0.28;0.28;;;20.30;99.90;;;;;;5134023;28;20046;-89
2021/08/22 11:55:35;;;;;;;0.43;0.30;;;20.20;99.90;;;;;;5119952;28;20460;-88
2021/08/22 11:58:20;;;;;;;0.47;0.28;;;20.20;99.90;;;;;;5124537;28;20119;-83
2021/08/22 12:00:51;;;;;;;0.35;0.30;;;20.20;99.90;;;;;;5132403;28;20036;-81
2021/08/22 12:03:20;;;;;;;0.05;0.05;;;20.30;99.90;;;;;;5133879;28;20023;-90
2021/08/22 12:06:07;;;;;;;0.10;0.10;;;20.30;99.90;;;;;;5116946;28;20186;-91
2021/08/22 12:08:34;;;;;;;0.10;0.10;;;20.30;99.90;;;;;;5114297;28;20040;-87
2021/08/22 12:11:10;;;;;;;0.20;0.10;;;20.20;99.90;;;;;;5129962;28;20074;-89
2021/08/22 12:13:40;;;;;;;0.30;0.20;;;20.20;99.90;;;;;;5132755;28;20035;-87
2021/08/22 12:16:33;;;;;;;0.10;0.10;;;20.10;99.90;;;;;;5141303;28;20040;-91
2021/08/22 12:19:21;;;;;;;0.10;0.10;;;20.00;99.90;;;;;;5139474;28;20095;-93
2021/08/22 12:21:49;;;;;;;1.10;0.30;;;19.90;99.90;;;;;;5110453;28;20123;-92
2021/08/22 12:24:25;;;;;;;0.10;0.10;;;19.90;99.90;;;;;;5120839;28;20058;-95
2021/08/22 12:26:55;;;;;;;0.00;0.00;;;19.80;99.90;;;;;;5132716;28;20036;-91
2021/08/22 12:29:36;;;;;;;0.03;0.03;;;19.80;99.90;;;;;;5131410;28;20040;-90
2021/08/22 12:32:08;;;;;;;0.10;0.10;;;19.90;99.90;;;;;;5132733;28;20039;-88
2021/08/22 12:34:34;;;;;;;0.55;0.30;;;19.70;99.90;;;;;;5151408;28;20042;-90
2021/08/22 12:37:13;;;;;;;0.10;0.10;;;19.60;99.90;;;;;;5134174;28;20479;-90
2021/08/22 12:39:41;;;;;;;0.22;0.20;;;19.70;99.90;;;;;;5151100;28;20032;-92
2021/08/22 12:42:15;;;;;;;0.00;0.00;;;19.90;99.90;;;;;;5133338;28;20055;-91
2021/08/22 12:44:42;;;;;;;0.22;0.20;;;19.90;99.90;;;;;;5133837;28;20050;-88
2021/08/22 12:47:09;;;;;;;0.20;0.20;;;20.00;99.90;;;;;;5118587;28;20040;-90
2021/08/22 12:49:36;;;;;;;0.10;0.10;;;20.20;99.90;;;;;;5096211;28;20087;-88
2021/08/22 12:52:09;;;;;;;0.25;0.22;;;20.30;99.90;;;;;;5110351;28;20084;-87
2021/08/22 12:54:37;;;;;;;0.25;0.25;;;20.40;99.90;;;;;;5133301;28;20047;-88
2021/08/22 12:57:05;;;;;;;0.10;0.10;;;20.50;99.90;;;;;;5150078;28;20071;-89
2021/08/22 12:59:32;;;;;;;0.70;0.52;;;20.50;99.90;;;;;;5115910;28;20070;-86
2021/08/22 13:01:59;;;;;;;0.70;0.30;;;20.60;99.90;;;;;;5133387;28;20102;-87
2021/08/22 13:04:27;;;;;;;0.52;0.40;;;20.60;99.90;;;;;;5149611;28;20076;-87
2021/08/22 13:06:56;;;;;;;0.85;0.30;;;20.60;99.90;;;;;;5133925;28;20051;-89
2021/08/22 13:09:24;;;;;;;0.40;0.20;;;20.50;99.90;;;;;;5149872;28;20118;-89